CPA237 WIII-VHHH
Flight info
| Callsign | CPA237 |
|---|---|
| Flight time | 4h 18m |
| Altitude | 40000 |
| Route | DOLTA2A DOLTA G579 SJ B469 VMR M771 DUDIS/K0904F400 M771 DOSUT/N0491F400 M771 DULOP/N0488F410 Q1 CARSO/N0491F400 V551 BETTY BETTY3B |
| Aircraft | A35K/H-SDE2E3GHIJ3J4J5LM1ORWXY/LB1D1 |
Departure
| Time | 2026-05-07 10:54 |
|---|---|
| Airport | Soekarno-Hatta International Airport (WIII) |
Arrival
| Time | 2026-05-07 15:12 |
|---|---|
| Airport | Hong Kong International Airport (VHHH) |
| Time | Latitude | Longitude | Altitude | Speed | Heading |
|---|---|---|---|---|---|
| 2026-05-07 10:34 | -6.11700 | 106.66606 | 38 ft | 0 kts | 158° |
| 2026-05-07 10:36 | -6.11699 | 106.66606 | 38 ft | 0 kts | 158° |
| 2026-05-07 10:40 | -6.11682 | 106.66599 | 37 ft | 3 kts | 158° |
| 2026-05-07 10:40 | -6.11665 | 106.66592 | 34 ft | 3 kts | 158° |
| 2026-05-07 10:41 | -6.11648 | 106.66585 | 36 ft | 3 kts | 158° |
| 2026-05-07 10:41 | -6.11629 | 106.66579 | 36 ft | 3 kts | 187° |
| 2026-05-07 10:41 | -6.11611 | 106.66585 | 36 ft | 3 kts | 224° |
| 2026-05-07 10:41 | -6.11601 | 106.66597 | 35 ft | 0 kts | 249° |
| 2026-05-07 10:43 | -6.11601 | 106.66596 | 35 ft | 1 kts | 248° |
| 2026-05-07 10:43 | -6.11620 | 106.66532 | 38 ft | 16 kts | 251° |
| 2026-05-07 10:43 | -6.11642 | 106.66429 | 38 ft | 11 kts | 289° |
| 2026-05-07 10:43 | -6.11591 | 106.66387 | 38 ft | 10 kts | 335° |
| 2026-05-07 10:44 | -6.11520 | 106.66360 | 38 ft | 12 kts | 338° |
| 2026-05-07 10:44 | -6.11436 | 106.66326 | 38 ft | 14 kts | 338° |
| 2026-05-07 10:44 | -6.11362 | 106.66271 | 38 ft | 11 kts | 285° |
| 2026-05-07 10:44 | -6.11375 | 106.66194 | 38 ft | 12 kts | 252° |
| 2026-05-07 10:45 | -6.11412 | 106.66101 | 38 ft | 17 kts | 248° |
| 2026-05-07 10:45 | -6.11461 | 106.65978 | 35 ft | 21 kts | 248° |
| 2026-05-07 10:45 | -6.11518 | 106.65833 | 34 ft | 24 kts | 248° |
| 2026-05-07 10:45 | -6.11579 | 106.65679 | 35 ft | 23 kts | 248° |
| 2026-05-07 10:46 | -6.11635 | 106.65540 | 35 ft | 18 kts | 248° |
| 2026-05-07 10:46 | -6.11683 | 106.65420 | 38 ft | 18 kts | 248° |
| 2026-05-07 10:46 | -6.11731 | 106.65299 | 41 ft | 19 kts | 248° |
| 2026-05-07 10:46 | -6.11783 | 106.65170 | 41 ft | 20 kts | 248° |
| 2026-05-07 10:47 | -6.11837 | 106.65035 | 43 ft | 21 kts | 248° |
| 2026-05-07 10:47 | -6.11892 | 106.64895 | 43 ft | 22 kts | 249° |
| 2026-05-07 10:47 | -6.11942 | 106.64769 | 43 ft | 17 kts | 248° |
| 2026-05-07 10:47 | -6.11989 | 106.64654 | 44 ft | 18 kts | 248° |
| 2026-05-07 10:48 | -6.12039 | 106.64526 | 43 ft | 21 kts | 248° |
| 2026-05-07 10:48 | -6.12087 | 106.64406 | 43 ft | 18 kts | 248° |
| 2026-05-07 10:48 | -6.12135 | 106.64286 | 44 ft | 19 kts | 248° |
| 2026-05-07 10:48 | -6.12188 | 106.64153 | 43 ft | 17 kts | 248° |
| 2026-05-07 10:49 | -6.12220 | 106.64072 | 44 ft | 14 kts | 248° |
| 2026-05-07 10:49 | -6.12259 | 106.63965 | 47 ft | 16 kts | 262° |
| 2026-05-07 10:49 | -6.12239 | 106.63909 | 48 ft | 0 kts | 314° |
| 2026-05-07 10:50 | -6.12233 | 106.63904 | 48 ft | 6 kts | 320° |
| 2026-05-07 10:50 | -6.12156 | 106.63897 | 46 ft | 14 kts | 20° |
| 2026-05-07 10:50 | -6.12074 | 106.63962 | 43 ft | 16 kts | 64° |
| 2026-05-07 10:51 | -6.12059 | 106.63999 | 43 ft | 0 kts | 68° |
| 2026-05-07 10:53 | -6.12031 | 106.64069 | 43 ft | 37 kts | 68° |
| 2026-05-07 10:53 | -6.11841 | 106.64543 | 43 ft | 106 kts | 68° |
| 2026-05-07 10:53 | -6.11485 | 106.65428 | 38 ft | 162 kts | 66° |
| 2026-05-07 10:53 | -6.11035 | 106.66537 | 555 ft | 173 kts | 69° |
| 2026-05-07 10:54 | -6.10585 | 106.67659 | 1229 ft | 180 kts | 69° |
| 2026-05-07 10:54 | -6.09919 | 106.68712 | 1761 ft | 179 kts | 39° |
| 2026-05-07 10:54 | -6.08814 | 106.69299 | 2219 ft | 185 kts | 27° |
| 2026-05-07 10:54 | -6.07602 | 106.69842 | 2417 ft | 205 kts | 27° |
| 2026-05-07 10:55 | -6.06246 | 106.70526 | 2660 ft | 225 kts | 32° |
| 2026-05-07 10:55 | -6.04849 | 106.71328 | 2954 ft | 243 kts | 34° |
| 2026-05-07 10:55 | -6.03363 | 106.72246 | 3320 ft | 257 kts | 36° |
| 2026-05-07 10:55 | -6.01835 | 106.73226 | 3818 ft | 264 kts | 36° |
| 2026-05-07 10:56 | -6.00282 | 106.74239 | 4385 ft | 269 kts | 36° |
| 2026-05-07 10:56 | -5.98696 | 106.75275 | 4943 ft | 274 kts | 35° |
| 2026-05-07 10:56 | -5.96875 | 106.75886 | 5471 ft | 284 kts | 5° |
| 2026-05-07 10:56 | -5.94947 | 106.75451 | 6079 ft | 290 kts | 332° |
| 2026-05-07 10:57 | -5.93478 | 106.74073 | 6639 ft | 294 kts | 301° |
| 2026-05-07 10:57 | -5.92860 | 106.72127 | 7198 ft | 295 kts | 276° |
| 2026-05-07 10:57 | -5.92622 | 106.70073 | 7760 ft | 298 kts | 277° |
| 2026-05-07 10:57 | -5.92210 | 106.68025 | 8367 ft | 300 kts | 284° |
| 2026-05-07 10:58 | -5.91602 | 106.66019 | 8987 ft | 301 kts | 289° |
| 2026-05-07 10:58 | -5.90864 | 106.64037 | 9564 ft | 304 kts | 292° |
| 2026-05-07 10:58 | -5.90047 | 106.62065 | 10051 ft | 310 kts | 293° |
| 2026-05-07 10:58 | -5.89157 | 106.60037 | 10302 ft | 324 kts | 294° |
| 2026-05-07 10:59 | -5.88196 | 106.57926 | 10530 ft | 339 kts | 295° |
| 2026-05-07 10:59 | -5.87183 | 106.55743 | 10750 ft | 352 kts | 295° |
| 2026-05-07 10:59 | -5.86128 | 106.53478 | 10982 ft | 364 kts | 295° |
| 2026-05-07 10:59 | -5.85039 | 106.51143 | 11174 ft | 375 kts | 295° |
| 2026-05-07 11:00 | -5.83918 | 106.48742 | 11394 ft | 385 kts | 295° |
| 2026-05-07 11:00 | -5.82768 | 106.46275 | 11608 ft | 394 kts | 295° |
| 2026-05-07 11:00 | -5.81593 | 106.43757 | 11878 ft | 401 kts | 295° |
| 2026-05-07 11:00 | -5.80413 | 106.41215 | 12330 ft | 402 kts | 295° |
| 2026-05-07 11:01 | -5.79230 | 106.38663 | 12730 ft | 404 kts | 295° |
| 2026-05-07 11:01 | -5.78046 | 106.36112 | 13240 ft | 403 kts | 295° |
| 2026-05-07 11:01 | -5.76856 | 106.33548 | 13616 ft | 406 kts | 295° |
| 2026-05-07 11:01 | -5.75661 | 106.30974 | 13981 ft | 407 kts | 295° |
| 2026-05-07 11:02 | -5.74338 | 106.28479 | 14233 ft | 411 kts | 305° |
| 2026-05-07 11:02 | -5.72406 | 106.26382 | 14574 ft | 410 kts | 323° |
| 2026-05-07 11:02 | -5.70007 | 106.24829 | 14949 ft | 410 kts | 331° |
| 2026-05-07 11:02 | -5.67516 | 106.23429 | 15303 ft | 412 kts | 332° |
| 2026-05-07 11:03 | -5.64987 | 106.22030 | 15637 ft | 415 kts | 332° |
| 2026-05-07 11:03 | -5.62446 | 106.20615 | 15958 ft | 417 kts | 332° |
| 2026-05-07 11:03 | -5.59908 | 106.19194 | 16328 ft | 419 kts | 332° |
| 2026-05-07 11:03 | -5.57387 | 106.17778 | 16676 ft | 421 kts | 332° |
| 2026-05-07 11:04 | -5.54820 | 106.16332 | 17011 ft | 423 kts | 332° |
| 2026-05-07 11:04 | -5.52244 | 106.14880 | 17327 ft | 426 kts | 332° |
| 2026-05-07 11:04 | -5.49654 | 106.13419 | 17683 ft | 428 kts | 332° |
| 2026-05-07 11:04 | -5.47051 | 106.11950 | 18029 ft | 429 kts | 332° |
| 2026-05-07 11:05 | -5.44428 | 106.10470 | 18317 ft | 432 kts | 332° |
| 2026-05-07 11:05 | -5.41793 | 106.08984 | 18595 ft | 434 kts | 332° |
| 2026-05-07 11:05 | -5.39191 | 106.07516 | 18902 ft | 435 kts | 332° |
| 2026-05-07 11:05 | -5.36532 | 106.06020 | 19213 ft | 436 kts | 332° |
| 2026-05-07 11:06 | -5.33873 | 106.04518 | 19501 ft | 438 kts | 332° |
| 2026-05-07 11:06 | -5.31211 | 106.03012 | 19745 ft | 441 kts | 332° |
| 2026-05-07 11:06 | -5.28534 | 106.01499 | 20038 ft | 442 kts | 332° |
| 2026-05-07 11:06 | -5.25850 | 105.99983 | 20348 ft | 443 kts | 332° |
| 2026-05-07 11:07 | -5.23157 | 105.98461 | 20617 ft | 444 kts | 332° |
| 2026-05-07 11:07 | -5.20464 | 105.96941 | 20897 ft | 445 kts | 332° |
| 2026-05-07 11:07 | -5.17757 | 105.95413 | 21141 ft | 447 kts | 332° |
| 2026-05-07 11:07 | -5.15074 | 105.93899 | 21405 ft | 449 kts | 332° |
| 2026-05-07 11:08 | -5.12345 | 105.92359 | 21660 ft | 450 kts | 332° |
| 2026-05-07 11:08 | -5.09603 | 105.90816 | 21951 ft | 451 kts | 332° |
| 2026-05-07 11:08 | -5.06863 | 105.89257 | 22210 ft | 453 kts | 332° |
| 2026-05-07 11:08 | -5.04122 | 105.87690 | 22447 ft | 454 kts | 332° |
| 2026-05-07 11:09 | -5.01372 | 105.86116 | 22707 ft | 456 kts | 332° |
| 2026-05-07 11:09 | -4.98611 | 105.84536 | 22951 ft | 457 kts | 332° |
| 2026-05-07 11:09 | -4.95841 | 105.82955 | 23200 ft | 459 kts | 332° |
| 2026-05-07 11:09 | -4.93061 | 105.81369 | 23446 ft | 460 kts | 332° |
| 2026-05-07 11:10 | -4.90270 | 105.79779 | 23629 ft | 462 kts | 332° |
| 2026-05-07 11:10 | -4.87473 | 105.78186 | 23825 ft | 463 kts | 332° |
| 2026-05-07 11:10 | -4.84671 | 105.76590 | 24026 ft | 464 kts | 332° |
| 2026-05-07 11:10 | -4.81850 | 105.74984 | 24222 ft | 466 kts | 332° |
| 2026-05-07 11:11 | -4.79064 | 105.73398 | 24400 ft | 467 kts | 332° |
| 2026-05-07 11:11 | -4.76231 | 105.71786 | 24601 ft | 468 kts | 332° |
| 2026-05-07 11:11 | -4.73395 | 105.70172 | 24788 ft | 469 kts | 332° |
| 2026-05-07 11:11 | -4.70552 | 105.68554 | 24972 ft | 471 kts | 332° |
| 2026-05-07 11:12 | -4.67702 | 105.66932 | 25151 ft | 472 kts | 332° |
| 2026-05-07 11:12 | -4.64841 | 105.65304 | 25324 ft | 473 kts | 332° |
| 2026-05-07 11:12 | -4.61980 | 105.63676 | 25528 ft | 474 kts | 332° |
| 2026-05-07 11:12 | -4.59109 | 105.62043 | 25707 ft | 475 kts | 332° |
| 2026-05-07 11:13 | -4.56227 | 105.60403 | 25899 ft | 476 kts | 332° |
| 2026-05-07 11:13 | -4.53339 | 105.58761 | 26080 ft | 477 kts | 332° |
| 2026-05-07 11:13 | -4.50449 | 105.57117 | 26263 ft | 478 kts | 332° |
| 2026-05-07 11:13 | -4.47552 | 105.55469 | 26436 ft | 479 kts | 332° |
| 2026-05-07 11:14 | -4.44644 | 105.53815 | 26606 ft | 481 kts | 332° |
| 2026-05-07 11:14 | -4.41737 | 105.52162 | 26782 ft | 482 kts | 332° |
| 2026-05-07 11:14 | -4.38817 | 105.50502 | 26941 ft | 483 kts | 332° |
| 2026-05-07 11:14 | -4.35887 | 105.48837 | 27106 ft | 485 kts | 332° |
| 2026-05-07 11:15 | -4.32951 | 105.47168 | 27282 ft | 486 kts | 332° |
| 2026-05-07 11:15 | -4.30008 | 105.45495 | 27458 ft | 487 kts | 332° |
| 2026-05-07 11:15 | -4.27056 | 105.43817 | 27632 ft | 488 kts | 332° |
| 2026-05-07 11:15 | -4.24130 | 105.42154 | 27804 ft | 489 kts | 332° |
| 2026-05-07 11:16 | -4.21168 | 105.40471 | 27976 ft | 491 kts | 332° |
| 2026-05-07 11:16 | -4.18195 | 105.38782 | 28154 ft | 492 kts | 332° |
| 2026-05-07 11:16 | -4.15216 | 105.37089 | 28322 ft | 493 kts | 332° |
| 2026-05-07 11:16 | -4.12224 | 105.35390 | 28486 ft | 494 kts | 332° |
| 2026-05-07 11:17 | -4.09227 | 105.33687 | 28654 ft | 495 kts | 332° |
| 2026-05-07 11:17 | -4.06223 | 105.31981 | 28812 ft | 497 kts | 332° |
| 2026-05-07 11:17 | -4.03215 | 105.30273 | 28964 ft | 498 kts | 332° |
| 2026-05-07 11:17 | -4.01211 | 105.29134 | 29043 ft | 499 kts | 332° |
| 2026-05-07 11:18 | -3.98193 | 105.27421 | 29214 ft | 500 kts | 332° |
| 2026-05-07 11:18 | -3.95162 | 105.25699 | 29393 ft | 500 kts | 332° |
| 2026-05-07 11:18 | -3.92128 | 105.23977 | 29539 ft | 501 kts | 332° |
| 2026-05-07 11:18 | -3.89087 | 105.22259 | 29683 ft | 503 kts | 332° |
| 2026-05-07 11:19 | -3.86040 | 105.20542 | 29826 ft | 504 kts | 332° |
| 2026-05-07 11:19 | -3.82980 | 105.18820 | 29955 ft | 505 kts | 332° |
| 2026-05-07 11:19 | -3.79916 | 105.17096 | 30081 ft | 506 kts | 332° |
| 2026-05-07 11:19 | -3.76847 | 105.15368 | 30193 ft | 507 kts | 332° |
| 2026-05-07 11:20 | -3.73770 | 105.13637 | 30340 ft | 508 kts | 332° |
| 2026-05-07 11:20 | -3.70685 | 105.11900 | 30473 ft | 508 kts | 332° |
| 2026-05-07 11:20 | -3.67601 | 105.10165 | 30623 ft | 509 kts | 332° |
| 2026-05-07 11:20 | -3.64506 | 105.08422 | 30734 ft | 510 kts | 332° |
| 2026-05-07 11:21 | -3.61406 | 105.06678 | 30920 ft | 510 kts | 332° |
| 2026-05-07 11:21 | -3.58319 | 105.04940 | 31138 ft | 509 kts | 332° |
| 2026-05-07 11:21 | -3.55236 | 105.03206 | 31369 ft | 508 kts | 332° |
| 2026-05-07 11:21 | -3.52152 | 105.01470 | 31591 ft | 508 kts | 332° |
| 2026-05-07 11:22 | -3.49081 | 104.99742 | 31783 ft | 507 kts | 332° |
| 2026-05-07 11:22 | -3.46044 | 104.98034 | 32026 ft | 506 kts | 331° |
| 2026-05-07 11:22 | -3.42979 | 104.96309 | 32236 ft | 505 kts | 331° |
| 2026-05-07 11:22 | -3.39918 | 104.94587 | 32438 ft | 505 kts | 332° |
| 2026-05-07 11:23 | -3.36855 | 104.92865 | 32701 ft | 504 kts | 331° |
| 2026-05-07 11:23 | -3.33803 | 104.91148 | 32936 ft | 503 kts | 331° |
| 2026-05-07 11:23 | -3.30743 | 104.89427 | 33143 ft | 503 kts | 331° |
| 2026-05-07 11:23 | -3.27693 | 104.87712 | 33373 ft | 503 kts | 331° |
| 2026-05-07 11:24 | -3.24649 | 104.86000 | 33650 ft | 501 kts | 331° |
| 2026-05-07 11:24 | -3.21612 | 104.84292 | 33920 ft | 500 kts | 331° |
| 2026-05-07 11:24 | -3.18580 | 104.82587 | 34123 ft | 500 kts | 331° |
| 2026-05-07 11:24 | -3.15546 | 104.80882 | 34307 ft | 500 kts | 331° |
| 2026-05-07 11:25 | -3.12511 | 104.79177 | 34544 ft | 499 kts | 331° |
| 2026-05-07 11:25 | -3.09494 | 104.77481 | 34833 ft | 497 kts | 331° |
| 2026-05-07 11:25 | -3.06515 | 104.75807 | 35040 ft | 497 kts | 331° |
| 2026-05-07 11:25 | -3.03498 | 104.74112 | 35241 ft | 497 kts | 331° |
| 2026-05-07 11:26 | -3.00487 | 104.72420 | 35496 ft | 496 kts | 331° |
| 2026-05-07 11:26 | -2.97480 | 104.70730 | 35758 ft | 495 kts | 331° |
| 2026-05-07 11:26 | -2.94476 | 104.69041 | 35991 ft | 495 kts | 331° |
| 2026-05-07 11:26 | -2.91465 | 104.67357 | 36115 ft | 496 kts | 332° |
| 2026-05-07 11:27 | -2.88337 | 104.65899 | 36320 ft | 496 kts | 339° |
| 2026-05-07 11:27 | -2.85055 | 104.64873 | 36568 ft | 494 kts | 347° |
| 2026-05-07 11:27 | -2.81697 | 104.64103 | 36815 ft | 493 kts | 348° |
| 2026-05-07 11:27 | -2.78331 | 104.63425 | 37074 ft | 492 kts | 349° |
| 2026-05-07 11:28 | -2.74961 | 104.62796 | 37332 ft | 491 kts | 350° |
| 2026-05-07 11:28 | -2.71599 | 104.62185 | 37563 ft | 491 kts | 350° |
| 2026-05-07 11:28 | -2.68241 | 104.61576 | 37797 ft | 490 kts | 350° |
| 2026-05-07 11:28 | -2.64883 | 104.60960 | 38035 ft | 489 kts | 350° |
| 2026-05-07 11:29 | -2.61532 | 104.60339 | 38242 ft | 489 kts | 350° |
| 2026-05-07 11:29 | -2.58242 | 104.59722 | 38477 ft | 488 kts | 350° |
| 2026-05-07 11:29 | -2.54899 | 104.59092 | 38585 ft | 489 kts | 350° |
| 2026-05-07 11:29 | -2.51547 | 104.58457 | 38728 ft | 490 kts | 350° |
| 2026-05-07 11:30 | -2.48199 | 104.57824 | 38894 ft | 489 kts | 350° |
| 2026-05-07 11:30 | -2.44854 | 104.57191 | 39077 ft | 488 kts | 350° |
| 2026-05-07 11:30 | -2.41523 | 104.56560 | 39252 ft | 487 kts | 350° |
| 2026-05-07 11:30 | -2.38197 | 104.55931 | 39417 ft | 486 kts | 350° |
| 2026-05-07 11:31 | -2.34868 | 104.55302 | 39580 ft | 486 kts | 350° |
| 2026-05-07 11:31 | -2.31547 | 104.54674 | 39735 ft | 485 kts | 350° |
| 2026-05-07 11:31 | -2.24901 | 104.53418 | 39819 ft | 485 kts | 350° |
| 2026-05-07 11:32 | -2.14967 | 104.51544 | 39816 ft | 487 kts | 349° |
| 2026-05-07 11:33 | -2.08291 | 104.50283 | 39820 ft | 488 kts | 349° |
| 2026-05-07 11:33 | -2.01634 | 104.49026 | 39818 ft | 488 kts | 349° |
| 2026-05-07 11:34 | -1.94947 | 104.47763 | 39816 ft | 488 kts | 349° |
| 2026-05-07 11:34 | -1.88270 | 104.46502 | 39818 ft | 488 kts | 349° |
| 2026-05-07 11:35 | -1.81587 | 104.45240 | 39818 ft | 489 kts | 350° |
| 2026-05-07 11:35 | -1.74888 | 104.43975 | 39818 ft | 490 kts | 350° |
| 2026-05-07 11:36 | -1.68180 | 104.42708 | 39814 ft | 490 kts | 350° |
| 2026-05-07 11:36 | -1.61505 | 104.41448 | 39815 ft | 490 kts | 350° |
| 2026-05-07 11:37 | -1.54803 | 104.40183 | 39817 ft | 490 kts | 350° |
| 2026-05-07 11:37 | -1.48092 | 104.38917 | 39815 ft | 490 kts | 350° |
| 2026-05-07 11:38 | -1.41379 | 104.37650 | 39812 ft | 493 kts | 350° |
| 2026-05-07 11:38 | -1.34627 | 104.36377 | 39813 ft | 494 kts | 350° |
| 2026-05-07 11:39 | -1.27878 | 104.35103 | 39814 ft | 494 kts | 350° |
| 2026-05-07 11:39 | -1.21128 | 104.33829 | 39812 ft | 494 kts | 350° |
| 2026-05-07 11:40 | -1.14373 | 104.32555 | 39810 ft | 494 kts | 350° |
| 2026-05-07 11:40 | -1.07627 | 104.31282 | 39810 ft | 493 kts | 350° |
| 2026-05-07 11:41 | -1.00876 | 104.30008 | 39811 ft | 492 kts | 350° |
| 2026-05-07 11:41 | -0.94186 | 104.28746 | 39810 ft | 491 kts | 350° |
| 2026-05-07 11:42 | -0.87467 | 104.27478 | 39811 ft | 491 kts | 350° |
| 2026-05-07 11:42 | -0.80737 | 104.26208 | 39813 ft | 492 kts | 350° |
| 2026-05-07 11:43 | -0.74040 | 104.24945 | 39809 ft | 491 kts | 350° |
| 2026-05-07 11:43 | -0.67294 | 104.23673 | 39810 ft | 492 kts | 349° |
| 2026-05-07 11:44 | -0.60552 | 104.22402 | 39809 ft | 492 kts | 349° |
| 2026-05-07 11:44 | -0.53811 | 104.21127 | 39811 ft | 492 kts | 349° |
| 2026-05-07 11:45 | -0.47154 | 104.19807 | 39809 ft | 489 kts | 349° |
| 2026-05-07 11:45 | -0.40475 | 104.18463 | 39807 ft | 489 kts | 349° |
| 2026-05-07 11:46 | -0.33791 | 104.17128 | 39808 ft | 490 kts | 349° |
| 2026-05-07 11:46 | -0.27076 | 104.15794 | 39810 ft | 493 kts | 349° |
| 2026-05-07 11:47 | -0.20348 | 104.14460 | 39810 ft | 493 kts | 349° |
| 2026-05-07 11:47 | -0.13606 | 104.13122 | 39810 ft | 493 kts | 349° |
| 2026-05-07 11:48 | -0.06868 | 104.11785 | 39808 ft | 493 kts | 349° |
| 2026-05-07 11:48 | -0.00139 | 104.10449 | 39811 ft | 493 kts | 349° |
| 2026-05-07 11:49 | 0.06597 | 104.09112 | 39806 ft | 494 kts | 349° |
| 2026-05-07 11:49 | 0.13303 | 104.07781 | 39804 ft | 494 kts | 349° |
| 2026-05-07 11:50 | 0.20061 | 104.06440 | 39804 ft | 494 kts | 349° |
| 2026-05-07 11:50 | 0.26818 | 104.05099 | 39804 ft | 494 kts | 349° |
| 2026-05-07 11:51 | 0.33578 | 104.03764 | 39806 ft | 494 kts | 349° |
| 2026-05-07 11:51 | 0.40346 | 104.02421 | 39807 ft | 495 kts | 349° |
| 2026-05-07 11:52 | 0.47059 | 104.01090 | 39808 ft | 495 kts | 349° |
| 2026-05-07 11:52 | 0.53824 | 103.99749 | 39807 ft | 495 kts | 349° |
| 2026-05-07 11:53 | 0.60582 | 103.98415 | 39806 ft | 495 kts | 349° |
| 2026-05-07 11:53 | 0.67347 | 103.97070 | 39807 ft | 494 kts | 349° |
| 2026-05-07 11:54 | 0.74062 | 103.95733 | 39807 ft | 494 kts | 349° |
| 2026-05-07 11:54 | 0.80802 | 103.94333 | 39807 ft | 494 kts | 348° |
| 2026-05-07 11:55 | 0.87530 | 103.92891 | 39807 ft | 494 kts | 348° |
| 2026-05-07 11:55 | 0.94277 | 103.91453 | 39801 ft | 494 kts | 348° |
| 2026-05-07 11:56 | 1.00973 | 103.90041 | 39804 ft | 494 kts | 348° |
| 2026-05-07 11:56 | 1.07708 | 103.88620 | 39803 ft | 494 kts | 348° |
| 2026-05-07 11:57 | 1.14434 | 103.87193 | 39802 ft | 493 kts | 348° |
| 2026-05-07 11:57 | 1.21178 | 103.85974 | 39801 ft | 492 kts | 355° |
| 2026-05-07 11:58 | 1.27933 | 103.86317 | 39800 ft | 489 kts | 13° |
| 2026-05-07 11:58 | 1.34217 | 103.88815 | 39801 ft | 487 kts | 33° |
| 2026-05-07 11:59 | 1.40105 | 103.92173 | 39801 ft | 488 kts | 24° |
| 2026-05-07 11:59 | 1.45526 | 103.93760 | 39773 ft | 490 kts | 8° |
| 2026-05-07 12:00 | 1.52334 | 103.93582 | 39776 ft | 491 kts | 353° |
| 2026-05-07 12:00 | 1.59103 | 103.92509 | 39781 ft | 491 kts | 354° |
| 2026-05-07 12:01 | 1.65886 | 103.91857 | 39788 ft | 491 kts | 356° |
| 2026-05-07 12:01 | 1.72709 | 103.91361 | 39786 ft | 491 kts | 357° |
| 2026-05-07 12:02 | 1.79545 | 103.91287 | 39790 ft | 490 kts | 2° |
| 2026-05-07 12:02 | 1.86380 | 103.91463 | 39793 ft | 490 kts | 2° |
| 2026-05-07 12:03 | 1.93191 | 103.91484 | 39800 ft | 489 kts | 357° |
| 2026-05-07 12:03 | 1.99933 | 103.90947 | 39798 ft | 489 kts | 355° |
| 2026-05-07 12:04 | 2.06710 | 103.90289 | 39797 ft | 489 kts | 355° |
| 2026-05-07 12:04 | 2.13506 | 103.89614 | 39800 ft | 489 kts | 355° |
| 2026-05-07 12:05 | 2.20246 | 103.88956 | 39801 ft | 489 kts | 355° |
| 2026-05-07 12:05 | 2.27028 | 103.88302 | 39801 ft | 488 kts | 355° |
| 2026-05-07 12:06 | 2.33806 | 103.87803 | 39800 ft | 487 kts | 1° |
| 2026-05-07 12:06 | 2.40437 | 103.88838 | 39801 ft | 484 kts | 19° |
| 2026-05-07 12:07 | 2.46481 | 103.91782 | 39800 ft | 483 kts | 31° |
| 2026-05-07 12:07 | 2.52201 | 103.95333 | 39801 ft | 483 kts | 33° |
| 2026-05-07 12:08 | 2.57859 | 103.98947 | 39801 ft | 483 kts | 33° |
| 2026-05-07 12:08 | 2.63552 | 104.02539 | 39798 ft | 484 kts | 32° |
| 2026-05-07 12:09 | 2.69248 | 104.06094 | 39805 ft | 484 kts | 32° |
| 2026-05-07 12:09 | 2.74979 | 104.09657 | 39805 ft | 484 kts | 32° |
| 2026-05-07 12:10 | 2.80715 | 104.13224 | 39805 ft | 484 kts | 32° |
| 2026-05-07 12:10 | 2.86446 | 104.16792 | 39807 ft | 484 kts | 32° |
| 2026-05-07 12:11 | 2.92171 | 104.20357 | 39805 ft | 484 kts | 32° |
| 2026-05-07 12:11 | 2.97857 | 104.23899 | 39807 ft | 485 kts | 32° |
| 2026-05-07 12:12 | 3.03604 | 104.27480 | 39805 ft | 485 kts | 32° |
| 2026-05-07 12:12 | 3.09338 | 104.31076 | 39807 ft | 485 kts | 33° |
| 2026-05-07 12:13 | 3.15006 | 104.34681 | 39808 ft | 485 kts | 33° |
| 2026-05-07 12:13 | 3.20749 | 104.38268 | 39807 ft | 485 kts | 32° |
| 2026-05-07 12:14 | 3.26503 | 104.41821 | 39808 ft | 485 kts | 32° |
| 2026-05-07 12:14 | 3.32254 | 104.45378 | 39807 ft | 485 kts | 32° |
| 2026-05-07 12:15 | 3.37999 | 104.48943 | 39804 ft | 485 kts | 32° |
| 2026-05-07 12:15 | 3.43701 | 104.52485 | 39806 ft | 485 kts | 32° |
| 2026-05-07 12:16 | 3.49449 | 104.56060 | 39809 ft | 485 kts | 32° |
| 2026-05-07 12:16 | 3.55186 | 104.59624 | 39807 ft | 485 kts | 32° |
| 2026-05-07 12:17 | 3.60921 | 104.63187 | 39808 ft | 485 kts | 32° |
| 2026-05-07 12:17 | 3.66651 | 104.66749 | 39806 ft | 485 kts | 32° |
| 2026-05-07 12:18 | 3.72388 | 104.70316 | 39807 ft | 485 kts | 32° |
| 2026-05-07 12:18 | 3.78076 | 104.73853 | 39807 ft | 484 kts | 32° |
| 2026-05-07 12:19 | 3.83802 | 104.77419 | 39808 ft | 484 kts | 32° |
| 2026-05-07 12:19 | 3.89522 | 104.80980 | 39809 ft | 484 kts | 32° |
| 2026-05-07 12:20 | 3.95246 | 104.84538 | 39810 ft | 484 kts | 32° |
| 2026-05-07 12:20 | 4.00956 | 104.88090 | 39810 ft | 484 kts | 32° |
| 2026-05-07 12:21 | 4.06641 | 104.91629 | 39806 ft | 484 kts | 32° |
| 2026-05-07 12:21 | 4.12358 | 104.95189 | 39806 ft | 484 kts | 32° |
| 2026-05-07 12:22 | 4.18070 | 104.98747 | 39808 ft | 483 kts | 32° |
| 2026-05-07 12:22 | 4.23795 | 105.02317 | 39806 ft | 483 kts | 32° |
| 2026-05-07 12:23 | 4.29527 | 105.05877 | 39809 ft | 483 kts | 32° |
| 2026-05-07 12:23 | 4.35208 | 105.09401 | 39811 ft | 483 kts | 32° |
| 2026-05-07 12:24 | 4.40926 | 105.12952 | 39809 ft | 483 kts | 32° |
| 2026-05-07 12:24 | 4.46640 | 105.16504 | 39809 ft | 483 kts | 32° |
| 2026-05-07 12:25 | 4.52354 | 105.20057 | 39809 ft | 483 kts | 32° |
| 2026-05-07 12:25 | 4.58074 | 105.23614 | 39809 ft | 483 kts | 32° |
| 2026-05-07 12:26 | 4.63783 | 105.27165 | 39809 ft | 483 kts | 32° |
| 2026-05-07 12:26 | 4.69504 | 105.30724 | 39810 ft | 483 kts | 32° |
| 2026-05-07 12:27 | 4.75216 | 105.34278 | 39808 ft | 483 kts | 32° |
| 2026-05-07 12:27 | 4.80890 | 105.37809 | 39810 ft | 483 kts | 32° |
| 2026-05-07 12:28 | 4.86551 | 105.41422 | 39810 ft | 482 kts | 33° |
| 2026-05-07 12:28 | 4.92160 | 105.45099 | 39810 ft | 482 kts | 34° |
| 2026-05-07 12:29 | 4.97778 | 105.48784 | 39810 ft | 482 kts | 34° |
| 2026-05-07 12:29 | 5.03409 | 105.52460 | 39809 ft | 482 kts | 34° |
| 2026-05-07 12:30 | 5.09028 | 105.56119 | 39809 ft | 482 kts | 33° |
| 2026-05-07 12:30 | 5.14617 | 105.59758 | 39809 ft | 482 kts | 33° |
| 2026-05-07 12:31 | 5.20273 | 105.63442 | 39809 ft | 482 kts | 33° |
| 2026-05-07 12:31 | 5.25894 | 105.67104 | 39808 ft | 482 kts | 33° |
| 2026-05-07 12:32 | 5.31480 | 105.70745 | 39809 ft | 482 kts | 33° |
| 2026-05-07 12:32 | 5.37105 | 105.74412 | 39809 ft | 482 kts | 33° |
| 2026-05-07 12:33 | 5.45536 | 105.79909 | 39810 ft | 482 kts | 33° |
| 2026-05-07 12:33 | 5.51160 | 105.83577 | 39805 ft | 482 kts | 34° |
| 2026-05-07 12:34 | 5.56801 | 105.87257 | 39816 ft | 485 kts | 34° |
| 2026-05-07 12:34 | 5.62464 | 105.90953 | 39815 ft | 486 kts | 34° |
| 2026-05-07 12:35 | 5.68141 | 105.94658 | 39810 ft | 486 kts | 34° |
| 2026-05-07 12:35 | 5.73813 | 105.98361 | 39815 ft | 486 kts | 34° |
| 2026-05-07 12:36 | 5.79472 | 106.02057 | 39815 ft | 485 kts | 33° |
| 2026-05-07 12:36 | 5.85086 | 106.05724 | 39815 ft | 483 kts | 33° |
| 2026-05-07 12:37 | 5.90762 | 106.09432 | 39815 ft | 484 kts | 33° |
| 2026-05-07 12:37 | 5.96375 | 106.13100 | 39814 ft | 484 kts | 33° |
| 2026-05-07 12:38 | 6.02026 | 106.16793 | 39814 ft | 484 kts | 33° |
| 2026-05-07 12:38 | 6.07673 | 106.20484 | 39815 ft | 484 kts | 33° |
| 2026-05-07 12:39 | 6.13318 | 106.24177 | 39817 ft | 484 kts | 33° |
| 2026-05-07 12:39 | 6.18959 | 106.27867 | 39818 ft | 484 kts | 33° |
| 2026-05-07 12:40 | 6.24608 | 106.31563 | 39818 ft | 485 kts | 33° |
| 2026-05-07 12:40 | 6.29315 | 106.34644 | 39818 ft | 486 kts | 33° |
| 2026-05-07 12:41 | 6.34979 | 106.38352 | 39815 ft | 486 kts | 33° |
| 2026-05-07 12:41 | 6.40646 | 106.42063 | 39815 ft | 486 kts | 33° |
| 2026-05-07 12:42 | 6.46319 | 106.45778 | 39818 ft | 486 kts | 33° |
| 2026-05-07 12:42 | 6.51991 | 106.49494 | 39815 ft | 486 kts | 33° |
| 2026-05-07 12:43 | 6.57672 | 106.53217 | 39816 ft | 486 kts | 33° |
| 2026-05-07 12:43 | 6.63344 | 106.56935 | 39818 ft | 487 kts | 33° |
| 2026-05-07 12:44 | 6.69022 | 106.60659 | 39818 ft | 487 kts | 33° |
| 2026-05-07 12:44 | 6.74669 | 106.64363 | 39813 ft | 487 kts | 33° |
| 2026-05-07 12:45 | 6.80344 | 106.68086 | 39813 ft | 487 kts | 33° |
| 2026-05-07 12:45 | 6.86021 | 106.71813 | 39813 ft | 487 kts | 33° |
| 2026-05-07 12:46 | 6.91705 | 106.75544 | 39810 ft | 488 kts | 34° |
| 2026-05-07 12:46 | 6.97397 | 106.79283 | 39816 ft | 489 kts | 33° |
| 2026-05-07 12:47 | 7.03095 | 106.83030 | 39815 ft | 489 kts | 33° |
| 2026-05-07 12:47 | 7.08797 | 106.86780 | 39813 ft | 489 kts | 33° |
| 2026-05-07 12:48 | 7.14464 | 106.90508 | 39813 ft | 489 kts | 33° |
| 2026-05-07 12:48 | 7.20177 | 106.94268 | 39814 ft | 489 kts | 33° |
| 2026-05-07 12:49 | 7.25875 | 106.98020 | 39811 ft | 489 kts | 33° |
| 2026-05-07 12:49 | 7.31550 | 107.01758 | 39812 ft | 490 kts | 33° |
| 2026-05-07 12:50 | 7.37257 | 107.05518 | 39819 ft | 490 kts | 33° |
| 2026-05-07 12:50 | 7.42968 | 107.09284 | 39814 ft | 490 kts | 32° |
| 2026-05-07 12:51 | 7.48688 | 107.13055 | 39816 ft | 490 kts | 32° |
| 2026-05-07 12:51 | 7.54405 | 107.16824 | 39815 ft | 490 kts | 32° |
| 2026-05-07 12:52 | 7.60084 | 107.20571 | 39812 ft | 490 kts | 32° |
| 2026-05-07 12:52 | 7.65804 | 107.24345 | 39813 ft | 491 kts | 32° |
| 2026-05-07 12:53 | 7.71530 | 107.28124 | 39815 ft | 491 kts | 32° |
| 2026-05-07 12:53 | 7.77237 | 107.31892 | 39815 ft | 490 kts | 32° |
| 2026-05-07 12:54 | 7.82924 | 107.35650 | 39813 ft | 490 kts | 32° |
| 2026-05-07 12:54 | 7.88648 | 107.39432 | 39815 ft | 491 kts | 32° |
| 2026-05-07 12:55 | 7.94351 | 107.43201 | 39814 ft | 488 kts | 32° |
| 2026-05-07 12:55 | 7.99982 | 107.46924 | 39815 ft | 488 kts | 32° |
| 2026-05-07 12:56 | 8.05703 | 107.50708 | 39810 ft | 492 kts | 32° |
| 2026-05-07 12:56 | 8.11442 | 107.54504 | 39813 ft | 492 kts | 32° |
| 2026-05-07 12:57 | 8.17175 | 107.58300 | 39814 ft | 492 kts | 32° |
| 2026-05-07 12:57 | 8.22877 | 107.62075 | 39814 ft | 492 kts | 32° |
| 2026-05-07 12:58 | 8.28613 | 107.65873 | 39815 ft | 492 kts | 33° |
| 2026-05-07 12:58 | 8.34349 | 107.69675 | 39813 ft | 492 kts | 32° |
| 2026-05-07 12:59 | 8.40081 | 107.73474 | 39816 ft | 492 kts | 32° |
| 2026-05-07 12:59 | 8.45811 | 107.77273 | 39814 ft | 492 kts | 32° |
| 2026-05-07 13:00 | 8.51541 | 107.81073 | 39817 ft | 492 kts | 32° |
| 2026-05-07 13:00 | 8.57233 | 107.84850 | 39817 ft | 492 kts | 32° |
| 2026-05-07 13:01 | 8.62960 | 107.88652 | 39817 ft | 492 kts | 32° |
| 2026-05-07 13:01 | 8.68687 | 107.92455 | 39814 ft | 492 kts | 32° |
| 2026-05-07 13:02 | 8.74415 | 107.96260 | 39817 ft | 491 kts | 32° |
| 2026-05-07 13:02 | 8.80089 | 108.00030 | 39814 ft | 490 kts | 32° |
| 2026-05-07 13:03 | 8.85798 | 108.03823 | 39814 ft | 490 kts | 32° |
| 2026-05-07 13:03 | 8.91516 | 108.07627 | 39816 ft | 490 kts | 32° |
| 2026-05-07 13:04 | 8.97193 | 108.11404 | 39817 ft | 490 kts | 32° |
| 2026-05-07 13:04 | 9.02893 | 108.15197 | 39816 ft | 491 kts | 32° |
| 2026-05-07 13:05 | 9.08609 | 108.19003 | 39824 ft | 492 kts | 32° |
| 2026-05-07 13:05 | 9.14331 | 108.22814 | 39822 ft | 492 kts | 32° |
| 2026-05-07 13:06 | 9.20055 | 108.26627 | 39824 ft | 492 kts | 32° |
| 2026-05-07 13:06 | 9.25772 | 108.30438 | 39822 ft | 492 kts | 32° |
| 2026-05-07 13:07 | 9.31489 | 108.34251 | 39823 ft | 492 kts | 32° |
| 2026-05-07 13:07 | 9.37207 | 108.38066 | 39824 ft | 492 kts | 32° |
| 2026-05-07 13:08 | 9.42895 | 108.41861 | 39822 ft | 492 kts | 31° |
| 2026-05-07 13:08 | 9.48621 | 108.45687 | 39823 ft | 492 kts | 32° |
| 2026-05-07 13:09 | 9.54355 | 108.49514 | 39822 ft | 493 kts | 32° |
| 2026-05-07 13:09 | 9.60093 | 108.53341 | 39822 ft | 493 kts | 32° |
| 2026-05-07 13:10 | 9.65792 | 108.57147 | 39824 ft | 493 kts | 32° |
| 2026-05-07 13:10 | 9.71525 | 108.60978 | 39826 ft | 493 kts | 32° |
| 2026-05-07 13:11 | 9.77244 | 108.64801 | 39829 ft | 492 kts | 32° |
| 2026-05-07 13:11 | 9.82974 | 108.68632 | 39827 ft | 492 kts | 32° |
| 2026-05-07 13:12 | 9.88688 | 108.72455 | 39828 ft | 492 kts | 32° |
| 2026-05-07 13:12 | 9.94405 | 108.76282 | 39827 ft | 492 kts | 32° |
| 2026-05-07 13:13 | 10.00086 | 108.80088 | 39829 ft | 492 kts | 32° |
| 2026-05-07 13:13 | 10.05805 | 108.83922 | 39833 ft | 492 kts | 32° |
| 2026-05-07 13:14 | 10.11519 | 108.87742 | 39835 ft | 491 kts | 32° |
| 2026-05-07 13:14 | 10.17232 | 108.91563 | 39837 ft | 491 kts | 32° |
| 2026-05-07 13:15 | 10.22940 | 108.95387 | 39837 ft | 491 kts | 32° |
| 2026-05-07 13:15 | 10.28603 | 108.99182 | 39837 ft | 491 kts | 31° |
| 2026-05-07 13:16 | 10.34322 | 109.03016 | 39835 ft | 491 kts | 32° |
| 2026-05-07 13:16 | 10.39980 | 109.06812 | 39835 ft | 488 kts | 31° |
| 2026-05-07 13:17 | 10.45647 | 109.10617 | 39839 ft | 486 kts | 32° |
| 2026-05-07 13:17 | 10.51301 | 109.14413 | 39837 ft | 487 kts | 32° |
| 2026-05-07 13:18 | 10.56955 | 109.18210 | 39840 ft | 487 kts | 31° |
| 2026-05-07 13:18 | 10.62589 | 109.21997 | 39840 ft | 487 kts | 32° |
| 2026-05-07 13:19 | 10.68251 | 109.25804 | 39842 ft | 487 kts | 32° |
| 2026-05-07 13:19 | 10.73926 | 109.29622 | 39842 ft | 487 kts | 31° |
| 2026-05-07 13:20 | 10.79546 | 109.33405 | 39845 ft | 487 kts | 31° |
| 2026-05-07 13:20 | 10.85202 | 109.37213 | 39845 ft | 487 kts | 31° |
| 2026-05-07 13:21 | 10.90860 | 109.41024 | 39845 ft | 487 kts | 31° |
| 2026-05-07 13:21 | 10.95566 | 109.44195 | 39845 ft | 487 kts | 31° |
| 2026-05-07 13:22 | 11.02141 | 109.48628 | 39849 ft | 488 kts | 31° |
| 2026-05-07 13:22 | 11.06873 | 109.51819 | 39849 ft | 489 kts | 32° |
| 2026-05-07 13:23 | 11.12547 | 109.55649 | 39847 ft | 489 kts | 31° |
| 2026-05-07 13:23 | 11.18220 | 109.59401 | 39850 ft | 489 kts | 31° |
| 2026-05-07 13:24 | 11.23948 | 109.63151 | 39853 ft | 488 kts | 31° |
| 2026-05-07 13:24 | 11.29672 | 109.66911 | 39851 ft | 488 kts | 31° |
| 2026-05-07 13:25 | 11.35354 | 109.70657 | 39854 ft | 488 kts | 31° |
| 2026-05-07 13:25 | 11.41054 | 109.74421 | 39854 ft | 488 kts | 31° |
| 2026-05-07 13:26 | 11.46753 | 109.78186 | 39854 ft | 487 kts | 31° |
| 2026-05-07 13:26 | 11.52453 | 109.81953 | 39857 ft | 488 kts | 31° |
| 2026-05-07 13:27 | 11.58123 | 109.85702 | 39856 ft | 488 kts | 31° |
| 2026-05-07 13:27 | 11.63837 | 109.89481 | 39856 ft | 488 kts | 31° |
| 2026-05-07 13:28 | 11.69553 | 109.93264 | 39859 ft | 489 kts | 31° |
| 2026-05-07 13:28 | 11.75219 | 109.97014 | 39856 ft | 487 kts | 31° |
| 2026-05-07 13:29 | 11.80914 | 110.00788 | 39856 ft | 487 kts | 31° |
| 2026-05-07 13:29 | 11.86569 | 110.04535 | 39856 ft | 487 kts | 31° |
| 2026-05-07 13:30 | 11.92259 | 110.08309 | 39862 ft | 487 kts | 31° |
| 2026-05-07 13:30 | 11.97946 | 110.12082 | 39862 ft | 487 kts | 31° |
| 2026-05-07 13:31 | 12.03628 | 110.15853 | 39864 ft | 486 kts | 32° |
| 2026-05-07 13:31 | 12.09293 | 110.19614 | 39862 ft | 485 kts | 32° |
| 2026-05-07 13:32 | 12.14910 | 110.23347 | 39862 ft | 484 kts | 32° |
| 2026-05-07 13:32 | 12.20561 | 110.27104 | 39862 ft | 484 kts | 32° |
| 2026-05-07 13:33 | 12.26218 | 110.30866 | 39862 ft | 484 kts | 32° |
| 2026-05-07 13:33 | 12.31867 | 110.34627 | 39865 ft | 484 kts | 32° |
| 2026-05-07 13:34 | 12.40312 | 110.40299 | 39864 ft | 483 kts | 33° |
| 2026-05-07 13:35 | 12.45866 | 110.44186 | 39864 ft | 483 kts | 33° |
| 2026-05-07 13:35 | 12.51384 | 110.48068 | 39865 ft | 483 kts | 33° |
| 2026-05-07 13:36 | 12.56940 | 110.51962 | 39870 ft | 483 kts | 33° |
| 2026-05-07 13:36 | 12.62500 | 110.55846 | 39870 ft | 483 kts | 33° |
| 2026-05-07 13:37 | 12.68029 | 110.59708 | 39873 ft | 483 kts | 33° |
| 2026-05-07 13:37 | 12.73584 | 110.63592 | 39873 ft | 483 kts | 33° |
| 2026-05-07 13:38 | 12.79134 | 110.67478 | 39874 ft | 482 kts | 33° |
| 2026-05-07 13:38 | 12.84682 | 110.71356 | 39873 ft | 482 kts | 33° |
| 2026-05-07 13:39 | 12.90231 | 110.75237 | 39874 ft | 482 kts | 33° |
| 2026-05-07 13:39 | 12.95743 | 110.79097 | 39878 ft | 482 kts | 33° |
| 2026-05-07 13:40 | 13.01295 | 110.82988 | 39875 ft | 482 kts | 33° |
| 2026-05-07 13:40 | 13.06836 | 110.86874 | 39875 ft | 482 kts | 33° |
| 2026-05-07 13:41 | 13.12383 | 110.90766 | 39875 ft | 482 kts | 33° |
| 2026-05-07 13:41 | 13.17889 | 110.94630 | 39879 ft | 482 kts | 33° |
| 2026-05-07 13:42 | 13.23440 | 110.98529 | 39876 ft | 482 kts | 33° |
| 2026-05-07 13:42 | 13.28984 | 111.02424 | 39879 ft | 482 kts | 33° |
| 2026-05-07 13:43 | 13.34525 | 111.06320 | 39877 ft | 482 kts | 33° |
| 2026-05-07 13:43 | 13.40026 | 111.10191 | 39878 ft | 482 kts | 33° |
| 2026-05-07 13:44 | 13.45578 | 111.14098 | 39883 ft | 482 kts | 33° |
| 2026-05-07 13:44 | 13.51112 | 111.17996 | 39881 ft | 482 kts | 33° |
| 2026-05-07 13:45 | 13.56614 | 111.21873 | 39884 ft | 482 kts | 33° |
| 2026-05-07 13:45 | 13.62140 | 111.25769 | 39886 ft | 482 kts | 33° |
| 2026-05-07 13:46 | 13.67674 | 111.29674 | 39889 ft | 482 kts | 33° |
| 2026-05-07 13:46 | 13.73208 | 111.33581 | 39883 ft | 482 kts | 33° |
| 2026-05-07 13:47 | 13.78733 | 111.37483 | 39884 ft | 482 kts | 33° |
| 2026-05-07 13:47 | 13.84232 | 111.41369 | 39887 ft | 482 kts | 33° |
| 2026-05-07 13:48 | 13.89775 | 111.45289 | 39888 ft | 482 kts | 33° |
| 2026-05-07 13:48 | 13.95267 | 111.49175 | 39887 ft | 482 kts | 33° |
| 2026-05-07 13:49 | 14.00797 | 111.53092 | 39891 ft | 482 kts | 33° |
| 2026-05-07 13:49 | 14.06345 | 111.56993 | 39887 ft | 482 kts | 33° |
| 2026-05-07 13:50 | 14.11906 | 111.60898 | 39885 ft | 482 kts | 33° |
| 2026-05-07 13:50 | 14.17456 | 111.64803 | 39884 ft | 482 kts | 33° |
| 2026-05-07 13:51 | 14.22968 | 111.68687 | 39885 ft | 482 kts | 33° |
| 2026-05-07 13:51 | 14.28517 | 111.72602 | 39887 ft | 482 kts | 33° |
| 2026-05-07 13:52 | 14.34069 | 111.76520 | 39890 ft | 482 kts | 33° |
| 2026-05-07 13:52 | 14.39582 | 111.80412 | 39888 ft | 482 kts | 33° |
| 2026-05-07 13:53 | 14.45125 | 111.84329 | 39891 ft | 481 kts | 33° |
| 2026-05-07 13:53 | 14.50623 | 111.88216 | 39889 ft | 481 kts | 33° |
| 2026-05-07 13:54 | 14.56151 | 111.92127 | 39896 ft | 481 kts | 33° |
| 2026-05-07 13:54 | 14.61681 | 111.96046 | 39888 ft | 482 kts | 33° |
| 2026-05-07 13:55 | 14.67225 | 111.99963 | 39888 ft | 482 kts | 33° |
| 2026-05-07 13:55 | 14.72741 | 112.03865 | 39892 ft | 482 kts | 33° |
| 2026-05-07 13:56 | 14.78256 | 112.07738 | 39894 ft | 482 kts | 33° |
| 2026-05-07 13:56 | 14.83816 | 112.11634 | 39895 ft | 482 kts | 33° |
| 2026-05-07 13:57 | 14.89373 | 112.15536 | 39895 ft | 482 kts | 33° |
| 2026-05-07 13:57 | 14.94890 | 112.19417 | 39897 ft | 482 kts | 33° |
| 2026-05-07 13:58 | 15.00434 | 112.23320 | 39893 ft | 482 kts | 33° |
| 2026-05-07 13:58 | 15.05977 | 112.27226 | 39896 ft | 482 kts | 33° |
| 2026-05-07 13:59 | 15.11534 | 112.31144 | 39896 ft | 482 kts | 33° |
| 2026-05-07 13:59 | 15.17054 | 112.35038 | 39898 ft | 482 kts | 33° |
| 2026-05-07 14:00 | 15.22609 | 112.38959 | 39899 ft | 483 kts | 33° |
| 2026-05-07 14:00 | 15.28173 | 112.42889 | 39900 ft | 483 kts | 33° |
| 2026-05-07 14:01 | 15.33737 | 112.46822 | 39901 ft | 483 kts | 33° |
| 2026-05-07 14:01 | 15.39262 | 112.50729 | 39897 ft | 482 kts | 33° |
| 2026-05-07 14:02 | 15.44825 | 112.54667 | 39897 ft | 482 kts | 33° |
| 2026-05-07 14:02 | 15.50333 | 112.58567 | 39898 ft | 482 kts | 33° |
| 2026-05-07 14:03 | 15.55880 | 112.62498 | 39898 ft | 483 kts | 33° |
| 2026-05-07 14:03 | 15.61427 | 112.66432 | 39900 ft | 483 kts | 33° |
| 2026-05-07 14:04 | 15.66977 | 112.70370 | 39904 ft | 483 kts | 33° |
| 2026-05-07 14:04 | 15.72532 | 112.74315 | 39900 ft | 483 kts | 33° |
| 2026-05-07 14:05 | 15.78078 | 112.78256 | 39901 ft | 483 kts | 33° |
| 2026-05-07 14:05 | 15.83589 | 112.82174 | 39903 ft | 482 kts | 33° |
| 2026-05-07 14:06 | 15.89133 | 112.86119 | 39904 ft | 482 kts | 33° |
| 2026-05-07 14:06 | 15.93737 | 112.89397 | 39906 ft | 482 kts | 33° |
| 2026-05-07 14:07 | 15.99267 | 112.93337 | 39906 ft | 482 kts | 33° |
| 2026-05-07 14:07 | 16.04803 | 112.97283 | 39905 ft | 482 kts | 33° |
| 2026-05-07 14:08 | 16.10338 | 113.01232 | 39905 ft | 482 kts | 33° |
| 2026-05-07 14:08 | 16.15880 | 113.05188 | 39909 ft | 483 kts | 33° |
| 2026-05-07 14:09 | 16.21422 | 113.09147 | 39910 ft | 483 kts | 33° |
| 2026-05-07 14:09 | 16.26931 | 113.13085 | 39908 ft | 482 kts | 33° |
| 2026-05-07 14:10 | 16.32464 | 113.17044 | 39904 ft | 482 kts | 33° |
| 2026-05-07 14:10 | 16.38006 | 113.21011 | 39906 ft | 482 kts | 33° |
| 2026-05-07 14:11 | 16.43512 | 113.24955 | 39910 ft | 482 kts | 33° |
| 2026-05-07 14:11 | 16.49046 | 113.28922 | 39908 ft | 482 kts | 33° |
| 2026-05-07 14:12 | 16.54542 | 113.32865 | 39909 ft | 482 kts | 33° |
| 2026-05-07 14:12 | 16.60066 | 113.36831 | 39908 ft | 482 kts | 33° |
| 2026-05-07 14:13 | 16.65604 | 113.40810 | 39909 ft | 482 kts | 33° |
| 2026-05-07 14:13 | 16.71129 | 113.44781 | 39912 ft | 482 kts | 33° |
| 2026-05-07 14:14 | 16.76645 | 113.48749 | 39908 ft | 482 kts | 33° |
| 2026-05-07 14:14 | 16.82144 | 113.52708 | 39911 ft | 482 kts | 33° |
| 2026-05-07 14:15 | 16.87674 | 113.56693 | 39914 ft | 483 kts | 33° |
| 2026-05-07 14:15 | 16.93209 | 113.60683 | 39914 ft | 482 kts | 33° |
| 2026-05-07 14:16 | 16.98705 | 113.64649 | 39921 ft | 482 kts | 33° |
| 2026-05-07 14:16 | 17.04238 | 113.68645 | 39914 ft | 483 kts | 33° |
| 2026-05-07 14:17 | 17.09800 | 113.72621 | 39916 ft | 483 kts | 32° |
| 2026-05-07 14:17 | 17.15333 | 113.76549 | 39915 ft | 483 kts | 32° |
| 2026-05-07 14:18 | 17.20903 | 113.80510 | 39912 ft | 483 kts | 32° |
| 2026-05-07 14:18 | 17.26465 | 113.84476 | 39914 ft | 483 kts | 32° |
| 2026-05-07 14:19 | 17.32016 | 113.88440 | 39916 ft | 483 kts | 32° |
| 2026-05-07 14:19 | 17.37548 | 113.92394 | 39914 ft | 483 kts | 32° |
| 2026-05-07 14:20 | 17.43103 | 113.96367 | 39912 ft | 483 kts | 32° |
| 2026-05-07 14:20 | 17.48661 | 114.00345 | 39914 ft | 483 kts | 32° |
| 2026-05-07 14:21 | 17.54220 | 114.04326 | 39916 ft | 483 kts | 32° |
| 2026-05-07 14:21 | 17.59783 | 114.08313 | 39914 ft | 484 kts | 32° |
| 2026-05-07 14:22 | 17.65302 | 114.12272 | 39917 ft | 484 kts | 32° |
| 2026-05-07 14:22 | 17.70857 | 114.16260 | 39917 ft | 484 kts | 32° |
| 2026-05-07 14:23 | 17.76419 | 114.20256 | 39917 ft | 484 kts | 32° |
| 2026-05-07 14:23 | 17.81982 | 114.24256 | 39917 ft | 484 kts | 32° |
| 2026-05-07 14:24 | 17.87512 | 114.28235 | 39920 ft | 484 kts | 32° |
| 2026-05-07 14:24 | 17.93078 | 114.32243 | 39921 ft | 485 kts | 32° |
| 2026-05-07 14:25 | 17.98616 | 114.36233 | 39918 ft | 485 kts | 32° |
| 2026-05-07 14:25 | 18.04198 | 114.40259 | 39924 ft | 485 kts | 32° |
| 2026-05-07 14:26 | 18.09762 | 114.44275 | 39919 ft | 484 kts | 32° |
| 2026-05-07 14:26 | 18.15283 | 114.48263 | 39923 ft | 484 kts | 32° |
| 2026-05-07 14:27 | 18.20877 | 114.52234 | 39924 ft | 484 kts | 28° |
| 2026-05-07 14:27 | 18.27036 | 114.54994 | 39927 ft | 479 kts | 13° |
| 2026-05-07 14:28 | 18.33524 | 114.56594 | 39927 ft | 479 kts | 10° |
| 2026-05-07 14:28 | 18.40027 | 114.57971 | 39927 ft | 479 kts | 9° |
| 2026-05-07 14:29 | 18.46576 | 114.59349 | 39928 ft | 479 kts | 9° |
| 2026-05-07 14:29 | 18.53112 | 114.60758 | 39930 ft | 479 kts | 9° |
| 2026-05-07 14:30 | 18.59647 | 114.62186 | 39928 ft | 479 kts | 9° |
| 2026-05-07 14:30 | 18.66179 | 114.63619 | 39931 ft | 479 kts | 9° |
| 2026-05-07 14:31 | 18.72675 | 114.65044 | 39928 ft | 479 kts | 9° |
| 2026-05-07 14:31 | 18.79212 | 114.66479 | 39928 ft | 479 kts | 9° |
| 2026-05-07 14:32 | 18.85751 | 114.67914 | 39931 ft | 479 kts | 9° |
| 2026-05-07 14:32 | 18.92249 | 114.69342 | 39933 ft | 479 kts | 9° |
| 2026-05-07 14:33 | 18.98810 | 114.70637 | 39932 ft | 477 kts | 4° |
| 2026-05-07 14:33 | 19.05430 | 114.70631 | 39941 ft | 474 kts | 355° |
| 2026-05-07 14:34 | 19.12010 | 114.70121 | 39934 ft | 474 kts | 353° |
| 2026-05-07 14:34 | 19.18574 | 114.69520 | 39936 ft | 473 kts | 353° |
| 2026-05-07 14:35 | 19.25149 | 114.68933 | 39937 ft | 473 kts | 353° |
| 2026-05-07 14:35 | 19.31682 | 114.68372 | 39935 ft | 473 kts | 353° |
| 2026-05-07 14:36 | 19.38265 | 114.67816 | 39938 ft | 473 kts | 353° |
| 2026-05-07 14:36 | 19.44827 | 114.67262 | 39937 ft | 472 kts | 353° |
| 2026-05-07 14:37 | 19.51344 | 114.66710 | 39937 ft | 472 kts | 353° |
| 2026-05-07 14:37 | 19.61171 | 114.65877 | 39937 ft | 472 kts | 353° |
| 2026-05-07 14:38 | 19.67732 | 114.65320 | 39941 ft | 472 kts | 353° |
| 2026-05-07 14:38 | 19.74281 | 114.64770 | 39938 ft | 471 kts | 353° |
| 2026-05-07 14:39 | 19.80830 | 114.64209 | 39937 ft | 471 kts | 353° |
| 2026-05-07 14:39 | 19.87363 | 114.63650 | 39938 ft | 471 kts | 353° |
| 2026-05-07 14:40 | 19.93859 | 114.63095 | 39941 ft | 471 kts | 353° |
| 2026-05-07 14:40 | 20.00406 | 114.62537 | 39946 ft | 471 kts | 353° |
| 2026-05-07 14:41 | 20.06939 | 114.61980 | 39937 ft | 470 kts | 353° |
| 2026-05-07 14:41 | 20.13463 | 114.61423 | 39941 ft | 470 kts | 353° |
| 2026-05-07 14:42 | 20.19995 | 114.60864 | 39943 ft | 470 kts | 353° |
| 2026-05-07 14:42 | 20.23211 | 114.60589 | 39749 ft | 469 kts | 353° |
| 2026-05-07 14:42 | 20.26480 | 114.60309 | 39517 ft | 470 kts | 353° |
| 2026-05-07 14:43 | 20.29747 | 114.60029 | 39268 ft | 469 kts | 353° |
| 2026-05-07 14:43 | 20.32976 | 114.59754 | 38864 ft | 463 kts | 353° |
| 2026-05-07 14:43 | 20.36191 | 114.59479 | 38256 ft | 461 kts | 353° |
| 2026-05-07 14:43 | 20.39384 | 114.59206 | 37617 ft | 459 kts | 353° |
| 2026-05-07 14:44 | 20.42567 | 114.58932 | 37015 ft | 458 kts | 353° |
| 2026-05-07 14:44 | 20.45740 | 114.58660 | 36395 ft | 457 kts | 353° |
| 2026-05-07 14:44 | 20.48907 | 114.58387 | 35772 ft | 457 kts | 353° |
| 2026-05-07 14:44 | 20.52080 | 114.58114 | 35122 ft | 459 kts | 353° |
| 2026-05-07 14:45 | 20.55276 | 114.57839 | 34451 ft | 463 kts | 353° |
| 2026-05-07 14:45 | 20.58473 | 114.57563 | 33673 ft | 468 kts | 353° |
| 2026-05-07 14:45 | 20.61731 | 114.57286 | 32815 ft | 472 kts | 353° |
| 2026-05-07 14:45 | 20.65022 | 114.57004 | 31981 ft | 475 kts | 353° |
| 2026-05-07 14:46 | 20.68333 | 114.56717 | 31161 ft | 478 kts | 353° |
| 2026-05-07 14:46 | 20.71664 | 114.56427 | 30319 ft | 481 kts | 353° |
| 2026-05-07 14:46 | 20.75016 | 114.56135 | 29412 ft | 483 kts | 353° |
| 2026-05-07 14:46 | 20.78363 | 114.55844 | 28717 ft | 481 kts | 353° |
| 2026-05-07 14:47 | 20.81684 | 114.55557 | 28071 ft | 476 kts | 353° |
| 2026-05-07 14:47 | 20.84985 | 114.55367 | 27396 ft | 474 kts | 357° |
| 2026-05-07 14:47 | 20.88233 | 114.55354 | 26786 ft | 470 kts | 358° |
| 2026-05-07 14:47 | 20.91487 | 114.55370 | 26160 ft | 466 kts | 358° |
| 2026-05-07 14:48 | 20.94726 | 114.55393 | 25542 ft | 463 kts | 358° |
| 2026-05-07 14:48 | 20.97932 | 114.55420 | 24928 ft | 460 kts | 358° |
| 2026-05-07 14:48 | 21.00094 | 114.55439 | 24513 ft | 458 kts | 358° |
| 2026-05-07 14:48 | 21.04296 | 114.55476 | 23706 ft | 454 kts | 358° |
| 2026-05-07 14:49 | 21.06428 | 114.55495 | 23255 ft | 452 kts | 358° |
| 2026-05-07 14:49 | 21.09568 | 114.55524 | 22595 ft | 448 kts | 358° |
| 2026-05-07 14:49 | 21.12641 | 114.55553 | 21989 ft | 444 kts | 358° |
| 2026-05-07 14:49 | 21.15712 | 114.55581 | 21397 ft | 439 kts | 358° |
| 2026-05-07 14:50 | 21.18761 | 114.55610 | 20789 ft | 435 kts | 358° |
| 2026-05-07 14:50 | 21.21787 | 114.55638 | 20196 ft | 432 kts | 358° |
| 2026-05-07 14:50 | 21.24784 | 114.55666 | 19599 ft | 429 kts | 358° |
| 2026-05-07 14:50 | 21.27760 | 114.55693 | 18989 ft | 426 kts | 358° |
| 2026-05-07 14:51 | 21.30688 | 114.55720 | 18389 ft | 424 kts | 358° |
| 2026-05-07 14:51 | 21.33633 | 114.55747 | 17740 ft | 422 kts | 358° |
| 2026-05-07 14:51 | 21.36571 | 114.55775 | 17091 ft | 419 kts | 358° |
| 2026-05-07 14:51 | 21.39473 | 114.55802 | 16479 ft | 416 kts | 358° |
| 2026-05-07 14:52 | 21.42357 | 114.55829 | 15862 ft | 412 kts | 358° |
| 2026-05-07 14:52 | 21.45219 | 114.55855 | 15243 ft | 409 kts | 359° |
| 2026-05-07 14:52 | 21.48057 | 114.55802 | 14652 ft | 405 kts | 352° |
| 2026-05-07 14:52 | 21.50750 | 114.55159 | 14436 ft | 387 kts | 342° |
| 2026-05-07 14:53 | 21.53258 | 114.54317 | 14326 ft | 369 kts | 340° |
| 2026-05-07 14:53 | 21.55644 | 114.53484 | 14186 ft | 353 kts | 340° |
| 2026-05-07 14:53 | 21.57935 | 114.52682 | 14030 ft | 340 kts | 340° |
| 2026-05-07 14:53 | 21.60161 | 114.51886 | 13674 ft | 335 kts | 338° |
| 2026-05-07 14:54 | 21.62216 | 114.50754 | 13206 ft | 330 kts | 324° |
| 2026-05-07 14:54 | 21.64062 | 114.49314 | 12852 ft | 324 kts | 321° |
| 2026-05-07 14:54 | 21.65853 | 114.47816 | 12698 ft | 337 kts | 320° |
| 2026-05-07 14:54 | 21.67716 | 114.46247 | 12524 ft | 341 kts | 320° |
| 2026-05-07 14:55 | 21.69587 | 114.44681 | 12239 ft | 340 kts | 320° |
| 2026-05-07 14:55 | 21.71454 | 114.43125 | 12000 ft | 339 kts | 321° |
| 2026-05-07 14:55 | 21.73315 | 114.41577 | 11760 ft | 338 kts | 321° |
| 2026-05-07 14:55 | 21.75173 | 114.40033 | 11540 ft | 337 kts | 321° |
| 2026-05-07 14:56 | 21.77025 | 114.38494 | 11318 ft | 335 kts | 321° |
| 2026-05-07 14:56 | 21.78870 | 114.36961 | 11095 ft | 335 kts | 321° |
| 2026-05-07 14:56 | 21.80714 | 114.35428 | 10873 ft | 334 kts | 321° |
| 2026-05-07 14:56 | 21.82550 | 114.33903 | 10665 ft | 332 kts | 321° |
| 2026-05-07 14:57 | 21.84343 | 114.32413 | 10490 ft | 318 kts | 321° |
| 2026-05-07 14:57 | 21.86060 | 114.30988 | 10283 ft | 306 kts | 320° |
| 2026-05-07 14:57 | 21.87724 | 114.29605 | 10085 ft | 296 kts | 320° |
| 2026-05-07 14:57 | 21.89316 | 114.28280 | 9854 ft | 292 kts | 320° |
| 2026-05-07 14:58 | 21.90920 | 114.26943 | 9612 ft | 291 kts | 320° |
| 2026-05-07 14:58 | 21.92528 | 114.25602 | 9430 ft | 291 kts | 320° |
| 2026-05-07 14:58 | 21.94124 | 114.24272 | 9234 ft | 290 kts | 320° |
| 2026-05-07 14:58 | 21.95716 | 114.22946 | 9038 ft | 289 kts | 320° |
| 2026-05-07 14:59 | 21.97305 | 114.21622 | 8848 ft | 288 kts | 320° |
| 2026-05-07 14:59 | 21.98892 | 114.20299 | 8659 ft | 287 kts | 320° |
| 2026-05-07 14:59 | 22.00471 | 114.18982 | 8461 ft | 287 kts | 320° |
| 2026-05-07 14:59 | 22.02031 | 114.17678 | 8251 ft | 286 kts | 320° |
| 2026-05-07 15:00 | 22.03601 | 114.16365 | 8083 ft | 285 kts | 320° |
| 2026-05-07 15:00 | 22.05173 | 114.15053 | 7884 ft | 284 kts | 321° |
| 2026-05-07 15:00 | 22.06738 | 114.13747 | 7704 ft | 283 kts | 321° |
| 2026-05-07 15:00 | 22.08280 | 114.12460 | 7508 ft | 283 kts | 321° |
| 2026-05-07 15:01 | 22.09834 | 114.11162 | 7329 ft | 282 kts | 321° |
| 2026-05-07 15:01 | 22.11384 | 114.09868 | 7142 ft | 281 kts | 321° |
| 2026-05-07 15:01 | 22.12933 | 114.08574 | 6945 ft | 280 kts | 321° |
| 2026-05-07 15:01 | 22.14348 | 114.07135 | 6746 ft | 278 kts | 306° |
| 2026-05-07 15:02 | 22.15111 | 114.05270 | 6559 ft | 267 kts | 278° |
| 2026-05-07 15:02 | 22.15009 | 114.03356 | 6389 ft | 254 kts | 255° |
| 2026-05-07 15:02 | 22.14424 | 114.01594 | 6212 ft | 243 kts | 248° |
| 2026-05-07 15:02 | 22.13780 | 113.99946 | 6063 ft | 236 kts | 247° |
| 2026-05-07 15:03 | 22.13133 | 113.98312 | 5891 ft | 236 kts | 247° |
| 2026-05-07 15:03 | 22.12495 | 113.96680 | 5740 ft | 235 kts | 247° |
| 2026-05-07 15:03 | 22.11865 | 113.95049 | 5582 ft | 235 kts | 248° |
| 2026-05-07 15:03 | 22.11250 | 113.93443 | 5442 ft | 234 kts | 248° |
| 2026-05-07 15:04 | 22.10631 | 113.91819 | 5267 ft | 234 kts | 248° |
| 2026-05-07 15:04 | 22.10013 | 113.90194 | 5119 ft | 233 kts | 248° |
| 2026-05-07 15:04 | 22.09397 | 113.88573 | 4958 ft | 233 kts | 248° |
| 2026-05-07 15:04 | 22.08782 | 113.86954 | 4798 ft | 233 kts | 248° |
| 2026-05-07 15:05 | 22.08269 | 113.85291 | 4640 ft | 233 kts | 258° |
| 2026-05-07 15:05 | 22.08263 | 113.83562 | 4482 ft | 229 kts | 280° |
| 2026-05-07 15:05 | 22.08767 | 113.81987 | 4344 ft | 218 kts | 292° |
| 2026-05-07 15:05 | 22.09391 | 113.80519 | 4193 ft | 217 kts | 294° |
| 2026-05-07 15:06 | 22.10087 | 113.79078 | 4042 ft | 217 kts | 302° |
| 2026-05-07 15:06 | 22.11141 | 113.77910 | 3900 ft | 219 kts | 325° |
| 2026-05-07 15:06 | 22.12552 | 113.77310 | 3763 ft | 220 kts | 347° |
| 2026-05-07 15:06 | 22.14067 | 113.77090 | 3615 ft | 220 kts | 353° |
| 2026-05-07 15:07 | 22.15582 | 113.76939 | 3461 ft | 219 kts | 354° |
| 2026-05-07 15:07 | 22.17098 | 113.76788 | 3320 ft | 218 kts | 354° |
| 2026-05-07 15:07 | 22.18611 | 113.76633 | 3172 ft | 218 kts | 354° |
| 2026-05-07 15:07 | 22.20102 | 113.76480 | 3040 ft | 218 kts | 354° |
| 2026-05-07 15:08 | 22.21615 | 113.76317 | 2902 ft | 218 kts | 353° |
| 2026-05-07 15:08 | 22.23120 | 113.76146 | 2762 ft | 218 kts | 353° |
| 2026-05-07 15:08 | 22.24619 | 113.75978 | 2638 ft | 211 kts | 354° |
| 2026-05-07 15:08 | 22.26035 | 113.75822 | 2484 ft | 199 kts | 353° |
| 2026-05-07 15:09 | 22.27389 | 113.75874 | 2333 ft | 195 kts | 15° |
| 2026-05-07 15:09 | 22.28452 | 113.76734 | 2133 ft | 195 kts | 58° |
| 2026-05-07 15:09 | 22.28993 | 113.78047 | 1935 ft | 193 kts | 71° |
| 2026-05-07 15:09 | 22.29365 | 113.79432 | 1700 ft | 190 kts | 76° |
| 2026-05-07 15:10 | 22.29763 | 113.80744 | 1435 ft | 178 kts | 71° |
| 2026-05-07 15:10 | 22.30162 | 113.81959 | 1223 ft | 165 kts | 72° |
| 2026-05-07 15:10 | 22.30521 | 113.83088 | 1018 ft | 153 kts | 73° |
| 2026-05-07 15:10 | 22.30856 | 113.84143 | 826 ft | 143 kts | 73° |
| 2026-05-07 15:11 | 22.31176 | 113.85147 | 665 ft | 140 kts | 72° |
| 2026-05-07 15:11 | 22.31489 | 113.86123 | 474 ft | 139 kts | 72° |
| 2026-05-07 15:11 | 22.31800 | 113.87094 | 298 ft | 135 kts | 72° |
| 2026-05-07 15:11 | 22.32102 | 113.88043 | 125 ft | 133 kts | 71° |
| 2026-05-07 15:12 | 22.32402 | 113.88964 | 39 ft | 123 kts | 71° |
| 2026-05-07 15:12 | 22.32630 | 113.89677 | 36 ft | 64 kts | 70° |
| 2026-05-07 15:12 | 22.32705 | 113.89996 | 36 ft | 28 kts | 96° |
| 2026-05-07 15:12 | 22.32687 | 113.90160 | 36 ft | 20 kts | 100° |
| 2026-05-07 15:13 | 22.32597 | 113.90282 | 37 ft | 24 kts | 149° |
| 2026-05-07 15:13 | 22.32441 | 113.90342 | 36 ft | 25 kts | 161° |
| 2026-05-07 15:13 | 22.32258 | 113.90412 | 36 ft | 30 kts | 160° |
| 2026-05-07 15:13 | 22.32071 | 113.90481 | 36 ft | 31 kts | 161° |
| 2026-05-07 15:14 | 22.31858 | 113.90560 | 36 ft | 35 kts | 161° |
| 2026-05-07 15:14 | 22.31650 | 113.90638 | 36 ft | 14 kts | 161° |
| 2026-05-07 15:14 | 22.31579 | 113.90689 | 36 ft | 12 kts | 111° |
| 2026-05-07 15:14 | 22.31594 | 113.90783 | 36 ft | 14 kts | 71° |
| 2026-05-07 15:15 | 22.31628 | 113.90891 | 37 ft | 16 kts | 71° |
| 2026-05-07 15:15 | 22.31668 | 113.91015 | 37 ft | 19 kts | 71° |
| 2026-05-07 15:15 | 22.31714 | 113.91157 | 37 ft | 21 kts | 71° |
| 2026-05-07 15:15 | 22.31734 | 113.91286 | 37 ft | 13 kts | 118° |
| 2026-05-07 15:16 | 22.31663 | 113.91328 | 38 ft | 13 kts | 160° |
| 2026-05-07 15:16 | 22.31569 | 113.91363 | 38 ft | 15 kts | 161° |
| 2026-05-07 15:16 | 22.31457 | 113.91405 | 37 ft | 19 kts | 161° |
| 2026-05-07 15:16 | 22.31372 | 113.91450 | 37 ft | 8 kts | 121° |
| 2026-05-07 15:17 | 22.31369 | 113.91516 | 37 ft | 10 kts | 75° |
| 2026-05-07 15:17 | 22.31393 | 113.91596 | 37 ft | 13 kts | 71° |
| 2026-05-07 15:17 | 22.31424 | 113.91694 | 37 ft | 15 kts | 71° |
| 2026-05-07 15:17 | 22.31462 | 113.91812 | 36 ft | 18 kts | 71° |
| 2026-05-07 15:18 | 22.31501 | 113.91933 | 36 ft | 17 kts | 71° |
| 2026-05-07 15:18 | 22.31542 | 113.92061 | 36 ft | 19 kts | 71° |
| 2026-05-07 15:18 | 22.31589 | 113.92207 | 36 ft | 20 kts | 70° |
| 2026-05-07 15:18 | 22.31634 | 113.92346 | 36 ft | 19 kts | 71° |
| 2026-05-07 15:19 | 22.31638 | 113.92416 | 37 ft | 8 kts | 98° |
| 2026-05-07 15:19 | 22.31614 | 113.92483 | 37 ft | 11 kts | 114° |
| 2026-05-07 15:19 | 22.31580 | 113.92566 | 37 ft | 14 kts | 114° |
| 2026-05-07 15:19 | 22.31536 | 113.92668 | 37 ft | 16 kts | 115° |
| 2026-05-07 15:20 | 22.31499 | 113.92778 | 37 ft | 16 kts | 94° |
| 2026-05-07 15:20 | 22.31449 | 113.92858 | 37 ft | 12 kts | 173° |
| 2026-05-07 15:20 | 22.31418 | 113.92864 | 37 ft | 0 kts | 167° |
| 2026-05-07 15:29 | 22.31418 | 113.92863 | 37 ft | 0 kts | 167° |
| 2026-05-07 15:35 | 22.31419 | 113.92863 | 37 ft | 0 kts | 167° |